createdAt,value
2023-03-21T00:02:11.941Z,74.80
2023-03-21T00:04:50.943Z,74.80
2023-03-21T00:07:19.229Z,74.70
2023-03-21T00:09:46.225Z,74.70
2023-03-21T00:12:14.221Z,74.60
2023-03-21T00:14:41.169Z,74.60
2023-03-21T00:17:10.800Z,74.60
2023-03-21T00:19:38.509Z,74.60
2023-03-21T00:22:08.362Z,74.40
2023-03-21T00:24:36.845Z,74.40
2023-03-21T00:27:26.941Z,74.40
2023-03-21T00:29:51.176Z,74.60
2023-03-21T00:32:20.148Z,74.40
2023-03-21T00:35:01.476Z,74.60
2023-03-21T00:37:33.580Z,74.70
2023-03-21T00:40:01.261Z,74.60
2023-03-21T00:42:28.395Z,74.30
2023-03-21T00:44:55.652Z,74.30
2023-03-21T00:47:25.735Z,74.20
2023-03-21T00:49:52.827Z,74.00
2023-03-21T00:52:27.622Z,74.00
2023-03-21T00:55:07.195Z,73.90
2023-03-21T00:57:39.327Z,74.20
2023-03-21T01:00:10.525Z,74.30
2023-03-21T01:02:38.530Z,74.60
2023-03-21T01:05:06.129Z,75.10
2023-03-21T01:07:33.189Z,75.00
2023-03-21T01:10:00.779Z,75.00
2023-03-21T01:12:28.405Z,75.00
2023-03-21T01:14:56.451Z,75.00
2023-03-21T01:17:23.369Z,75.00
2023-03-21T01:19:51.952Z,75.00
2023-03-21T01:22:21.089Z,75.00
2023-03-21T01:24:55.507Z,75.00
2023-03-21T01:27:27.540Z,75.00
2023-03-21T01:29:54.625Z,75.00
2023-03-21T01:32:21.720Z,75.20
2023-03-21T01:34:49.022Z,75.00
2023-03-21T01:37:17.761Z,75.00
2023-03-21T01:39:47.891Z,75.00
2023-03-21T01:42:15.468Z,75.00
2023-03-21T01:45:01.752Z,75.00
2023-03-21T01:47:39.859Z,75.00
2023-03-21T01:50:22.163Z,75.00
2023-03-21T01:52:58.029Z,75.00
2023-03-21T01:55:28.465Z,75.00
2023-03-21T01:58:11.157Z,75.00
2023-03-21T02:01:03.077Z,75.00
2023-03-21T02:03:50.491Z,75.10
2023-03-21T02:07:03.633Z,75.10
2023-03-21T02:09:42.283Z,75.10
2023-03-21T02:12:16.324Z,75.10
2023-03-21T02:14:48.443Z,75.10
2023-03-21T02:18:17.440Z,75.10
2023-03-21T02:21:21.565Z,75.10
2023-03-21T02:24:18.418Z,75.10
2023-03-21T02:27:03.376Z,75.00
2023-03-21T02:29:58.467Z,75.00
2023-03-21T02:32:43.196Z,75.00
2023-03-21T02:35:51.901Z,75.00
2023-03-21T02:38:40.504Z,75.00
2023-03-21T02:41:39.569Z,75.00
2023-03-21T02:44:19.495Z,75.00
2023-03-21T02:47:05.952Z,75.00
2023-03-21T02:49:43.182Z,75.00
2023-03-21T02:52:35.529Z,75.00
2023-03-21T02:55:13.921Z,75.00
2023-03-21T02:57:50.252Z,74.90
2023-03-21T03:00:21.643Z,74.70
2023-03-21T03:02:54.563Z,74.80
2023-03-21T03:05:28.757Z,74.70
2023-03-21T03:08:43.041Z,74.60
2023-03-21T03:11:37.013Z,74.60
2023-03-21T03:14:46.907Z,75.70
2023-03-21T03:17:31.409Z,75.60
2023-03-21T03:20:16.578Z,75.60
2023-03-21T03:23:03.141Z,75.60
2023-03-21T03:26:12.496Z,76.10
2023-03-21T03:28:50.808Z,76.40
2023-03-21T03:31:26.559Z,77.00
2023-03-21T03:34:07.137Z,77.30
2023-03-21T03:36:47.626Z,77.20
2023-03-21T03:39:17.933Z,77.10
2023-03-21T03:42:25.265Z,77.80
2023-03-21T03:44:59.744Z,77.20
2023-03-21T03:47:57.525Z,77.20
2023-03-21T03:50:38.056Z,77.10
2023-03-21T03:53:36.927Z,77.20
2023-03-21T03:56:07.764Z,77.30
2023-03-21T03:58:45.298Z,77.30
2023-03-21T04:01:15.272Z,77.50
2023-03-21T04:03:50.524Z,77.50
2023-03-21T04:06:20.066Z,77.50
2023-03-21T04:08:50.924Z,77.50
2023-03-21T04:11:18.133Z,77.50
2023-03-21T04:13:49.115Z,77.50
2023-03-21T04:16:23.246Z,77.40
2023-03-21T04:18:50.581Z,77.30
2023-03-21T04:21:19.249Z,77.20
2023-03-21T04:23:46.180Z,77.10
2023-03-21T04:26:13.201Z,77.20
2023-03-21T04:28:52.457Z,77.30
2023-03-21T04:31:27.157Z,77.50
2023-03-21T04:34:09.762Z,77.60
2023-03-21T04:36:39.113Z,77.70
2023-03-21T04:39:12.418Z,77.70
2023-03-21T04:41:42.391Z,77.80
2023-03-21T04:44:11.742Z,77.80
2023-03-21T04:46:40.052Z,77.70
2023-03-21T04:49:08.295Z,77.90
2023-03-21T04:51:37.146Z,77.90
2023-03-21T04:56:36.093Z,78.20
2023-03-21T04:59:12.207Z,78.30
2023-03-21T05:01:41.127Z,78.40
2023-03-21T05:04:09.891Z,78.30
2023-03-21T05:06:39.295Z,78.40
2023-03-21T05:09:06.942Z,78.20
2023-03-21T05:11:37.904Z,78.10
2023-03-21T05:14:08.038Z,78.10
2023-03-21T05:16:38.632Z,78.20
2023-03-21T05:19:05.711Z,78.40
2023-03-21T05:21:41.738Z,78.40
2023-03-21T05:24:18.078Z,78.60
2023-03-21T05:26:52.559Z,78.60
2023-03-21T05:29:23.040Z,78.60
2023-03-21T05:31:59.914Z,78.60
2023-03-21T05:34:28.312Z,78.70
2023-03-21T05:36:56.201Z,78.70
2023-03-21T05:39:25.944Z,78.70
2023-03-21T05:42:02.860Z,78.90
2023-03-21T05:44:30.835Z,78.90
2023-03-21T05:46:59.114Z,79.00
2023-03-21T05:49:40.195Z,79.20
2023-03-21T05:52:09.163Z,79.30
2023-03-21T05:54:36.372Z,79.50
2023-03-21T05:57:05.163Z,79.90
2023-03-21T05:59:51.052Z,80.30
2023-03-21T06:02:19.333Z,80.60
2023-03-21T06:04:50.968Z,81.10
2023-03-21T06:07:21.575Z,82.20
2023-03-21T06:09:49.505Z,81.60
2023-03-21T06:12:16.670Z,82.50
2023-03-21T06:15:02.828Z,81.70
2023-03-21T06:17:49.813Z,81.50
2023-03-21T06:20:17.343Z,81.30
2023-03-21T06:22:49.215Z,81.00
2023-03-21T06:25:16.707Z,80.70
2023-03-21T06:27:44.113Z,80.30
2023-03-21T06:30:11.896Z,80.20
2023-03-21T06:32:46.464Z,80.00
2023-03-21T06:35:17.145Z,79.80
2023-03-21T06:37:45.444Z,79.50
2023-03-21T06:40:13.750Z,78.00
2023-03-21T06:42:41.009Z,77.80
2023-03-21T06:45:11.648Z,77.60
2023-03-21T06:47:38.915Z,77.40
2023-03-21T06:50:12.877Z,77.30
2023-03-21T06:52:42.639Z,77.20
2023-03-21T06:55:10.125Z,77.20
2023-03-21T06:57:37.547Z,77.30
2023-03-21T07:00:06.176Z,77.20
2023-03-21T07:02:34.152Z,77.20
2023-03-21T07:05:07.439Z,77.20
2023-03-21T07:07:34.477Z,77.20
2023-03-21T07:10:01.401Z,77.20
2023-03-21T07:12:35.735Z,77.10
2023-03-21T07:15:16.281Z,76.90
2023-03-21T07:17:44.781Z,76.60
2023-03-21T07:20:12.708Z,76.10
2023-03-21T07:22:39.924Z,75.80
2023-03-21T07:25:08.013Z,75.60
2023-03-21T07:27:41.027Z,75.50
2023-03-21T07:30:10.775Z,75.60
2023-03-21T07:32:38.960Z,75.60
2023-03-21T07:35:13.180Z,75.60
2023-03-21T07:37:41.649Z,75.70
2023-03-21T07:40:12.241Z,75.30
2023-03-21T07:42:41.003Z,75.10
2023-03-21T07:45:12.746Z,75.20
2023-03-21T07:47:39.726Z,74.90
2023-03-21T07:50:07.000Z,73.50
2023-03-21T07:52:34.832Z,73.30
2023-03-21T07:55:01.861Z,71.80
2023-03-21T07:57:28.842Z,71.80
2023-03-21T07:59:56.085Z,71.80
2023-03-21T08:02:23.159Z,71.10
2023-03-21T08:04:50.538Z,71.00
2023-03-21T08:07:17.687Z,69.90
2023-03-21T08:09:44.569Z,70.00
2023-03-21T08:12:11.835Z,69.00
2023-03-21T08:14:39.391Z,70.10
2023-03-21T08:17:07.088Z,69.30
2023-03-21T08:19:34.101Z,69.40
2023-03-21T08:22:01.438Z,68.70
2023-03-21T08:24:29.970Z,68.80
2023-03-21T08:26:57.288Z,68.20
2023-03-21T08:29:25.104Z,69.00
2023-03-21T08:31:52.004Z,68.50
2023-03-21T08:34:19.562Z,68.40
2023-03-21T08:36:47.102Z,68.80
2023-03-21T08:39:14.157Z,69.10
2023-03-21T08:41:41.094Z,68.90
2023-03-21T08:44:09.413Z,68.70
2023-03-21T08:46:36.345Z,68.50
2023-03-21T08:49:03.329Z,68.10
2023-03-21T08:51:31.662Z,68.30
2023-03-21T08:53:59.289Z,67.80
2023-03-21T08:56:26.260Z,68.10
2023-03-21T08:58:53.186Z,67.70
2023-03-21T09:01:20.275Z,66.40
2023-03-21T09:03:47.209Z,66.90
2023-03-21T09:06:14.532Z,66.20
2023-03-21T09:08:42.195Z,66.00
2023-03-21T09:11:10.678Z,66.30
2023-03-21T09:13:37.619Z,65.30
2023-03-21T09:16:05.220Z,65.40
2023-03-21T09:18:49.435Z,66.10
2023-03-21T09:21:18.288Z,64.70
2023-03-21T09:23:46.116Z,63.80
2023-03-21T09:26:13.935Z,63.40
2023-03-21T09:28:41.510Z,63.50
2023-03-21T09:31:12.840Z,63.60
2023-03-21T09:33:41.316Z,63.60
2023-03-21T09:36:13.900Z,63.40
2023-03-21T09:38:43.032Z,62.60
2023-03-21T09:41:36.812Z,63.70
2023-03-21T09:44:29.050Z,63.90
2023-03-21T09:47:25.013Z,63.30
2023-03-21T09:50:20.592Z,63.40
2023-03-21T09:52:59.340Z,64.80
2023-03-21T09:55:36.583Z,63.50
2023-03-21T09:58:44.724Z,62.00
2023-03-21T10:01:28.184Z,62.90
2023-03-21T10:03:57.296Z,61.70
2023-03-21T10:06:30.685Z,61.80
2023-03-21T10:09:07.286Z,61.20
2023-03-21T10:11:48.815Z,62.00
2023-03-21T10:14:28.625Z,61.90
2023-03-21T10:17:16.354Z,60.40
2023-03-21T10:19:46.446Z,60.10
2023-03-21T10:22:13.330Z,60.10
2023-03-21T10:24:40.333Z,60.00
2023-03-21T10:27:07.439Z,60.00
2023-03-21T10:29:43.916Z,60.60
2023-03-21T10:32:15.625Z,60.70
2023-03-21T10:37:24.806Z,60.00
2023-03-21T10:39:54.271Z,60.60
2023-03-21T10:42:32.747Z,60.10
2023-03-21T10:44:59.891Z,60.10
2023-03-21T10:47:36.186Z,60.50
2023-03-21T10:50:10.216Z,60.90
2023-03-21T10:52:46.944Z,60.20
2023-03-21T10:55:34.354Z,60.20
2023-03-21T10:58:13.450Z,60.30
2023-03-21T11:00:43.316Z,60.30
2023-03-21T11:03:39.200Z,60.40
2023-03-21T11:06:23.720Z,60.40
2023-03-21T11:09:25.081Z,60.50
2023-03-21T11:11:54.381Z,60.40
2023-03-21T11:14:37.205Z,60.40
2023-03-21T11:17:19.890Z,60.50
2023-03-21T11:20:05.608Z,60.50
2023-03-21T11:22:43.454Z,60.10
2023-03-21T11:25:27.661Z,60.60
2023-03-21T11:27:56.226Z,61.50
2023-03-21T11:30:26.677Z,60.60
2023-03-21T11:33:01.599Z,60.70
2023-03-21T11:35:38.509Z,59.70
2023-03-21T11:38:24.325Z,59.80
2023-03-21T11:40:59.572Z,59.00
2023-03-21T11:43:35.352Z,58.40
2023-03-21T11:46:06.829Z,58.90
2023-03-21T11:48:41.968Z,59.00
2023-03-21T11:51:32.970Z,58.60
2023-03-21T11:54:29.579Z,59.70
2023-03-21T11:57:24.881Z,58.80
2023-03-21T12:00:26.137Z,59.20
2023-03-21T12:03:38.194Z,59.00
2023-03-21T12:06:26.459Z,59.10
2023-03-21T12:09:25.125Z,58.60
2023-03-21T12:12:13.327Z,57.90
2023-03-21T12:15:01.494Z,58.30
2023-03-21T12:18:06.941Z,58.50
2023-03-21T12:20:52.652Z,58.60
2023-03-21T12:23:39.151Z,57.10
2023-03-21T12:26:40.685Z,57.60
2023-03-21T12:29:47.912Z,58.90
2023-03-21T12:32:45.581Z,56.50
2023-03-21T12:36:05.511Z,53.50
2023-03-21T12:39:29.847Z,51.70
2023-03-21T12:42:23.705Z,51.90
2023-03-21T12:45:21.341Z,52.50
2023-03-21T12:48:00.589Z,48.90
2023-03-21T12:50:37.492Z,46.00
2023-03-21T12:53:45.278Z,45.50
2023-03-21T12:56:28.642Z,45.90
2023-03-21T12:59:08.808Z,43.70
2023-03-21T13:01:38.899Z,42.50
2023-03-21T13:04:36.719Z,39.60
2023-03-21T13:07:08.159Z,42.00
2023-03-21T13:09:39.961Z,39.00
2023-03-21T13:12:32.914Z,37.90
2023-03-21T13:15:23.687Z,40.10
2023-03-21T13:18:20.919Z,37.90
2023-03-21T13:20:54.665Z,38.60
2023-03-21T13:23:25.241Z,39.20
2023-03-21T13:25:55.767Z,39.30
2023-03-21T13:28:29.496Z,39.60
2023-03-21T13:31:25.921Z,39.50
2023-03-21T13:33:59.001Z,40.20
2023-03-21T13:36:31.092Z,40.10
2023-03-21T13:39:05.919Z,40.40
2023-03-21T13:41:38.987Z,41.20
2023-03-21T13:44:20.975Z,41.70
2023-03-21T13:47:00.188Z,42.30
2023-03-21T13:49:32.297Z,43.30
2023-03-21T13:52:02.318Z,43.10
2023-03-21T13:54:55.978Z,44.00
2023-03-21T13:57:40.819Z,45.30
2023-03-21T14:00:30.221Z,47.40
2023-03-21T14:03:10.485Z,48.60
2023-03-21T14:05:39.197Z,46.50
2023-03-21T14:08:17.255Z,44.40
2023-03-21T14:10:56.973Z,43.30
2023-03-21T14:13:28.424Z,41.40
2023-03-21T14:16:06.615Z,39.90
2023-03-21T14:19:00.100Z,39.70
2023-03-21T14:21:31.336Z,40.30
2023-03-21T14:24:07.418Z,40.40
2023-03-21T14:26:44.389Z,41.40
2023-03-21T14:29:33.532Z,41.60
2023-03-21T14:32:02.154Z,42.50
2023-03-21T14:34:34.064Z,43.00
2023-03-21T14:37:01.186Z,43.80
2023-03-21T14:39:31.650Z,44.00
2023-03-21T14:42:06.469Z,44.50
2023-03-21T14:44:54.841Z,46.50
2023-03-21T14:47:28.613Z,45.80
2023-03-21T14:49:57.034Z,46.10
2023-03-21T14:52:31.003Z,46.40
2023-03-21T14:54:58.656Z,46.30
2023-03-21T14:57:31.354Z,47.40
2023-03-21T15:00:14.494Z,47.60
2023-03-21T15:02:43.287Z,47.30
2023-03-21T15:05:33.110Z,48.50
2023-03-21T15:08:09.185Z,48.00
2023-03-21T15:10:37.841Z,48.40
2023-03-21T15:13:21.129Z,49.00
2023-03-21T15:15:48.833Z,49.90
2023-03-21T15:18:23.462Z,48.60
2023-03-21T15:20:51.492Z,48.70
2023-03-21T15:23:42.625Z,48.90
2023-03-21T15:26:18.946Z,49.10
2023-03-21T15:28:50.488Z,49.40
2023-03-21T15:31:29.923Z,49.80
2023-03-21T15:33:57.042Z,49.80
2023-03-21T15:36:35.889Z,50.50
2023-03-21T15:39:08.833Z,50.40
2023-03-21T15:41:35.824Z,50.80
2023-03-21T15:44:13.568Z,51.40
2023-03-21T15:46:44.784Z,51.70
2023-03-21T15:53:19.823Z,54.20
2023-03-21T15:55:53.615Z,54.40
2023-03-21T15:58:24.858Z,54.50
2023-03-21T16:00:57.976Z,54.30
2023-03-21T16:03:37.513Z,54.40
2023-03-21T16:06:15.396Z,54.50
2023-03-21T16:08:52.295Z,54.40
2023-03-21T16:11:28.893Z,54.60
2023-03-21T16:13:57.075Z,54.70
2023-03-21T16:16:30.104Z,54.70
2023-03-21T16:18:59.767Z,55.00
2023-03-21T16:21:31.543Z,54.90
2023-03-21T16:23:58.957Z,55.00
2023-03-21T16:26:30.450Z,55.20
2023-03-21T16:28:58.392Z,55.40
2023-03-21T16:31:32.945Z,55.50
2023-03-21T16:34:01.634Z,55.70
2023-03-21T16:36:36.696Z,55.70
2023-03-21T16:39:20.362Z,55.90
2023-03-21T16:41:48.275Z,55.90
2023-03-21T16:44:15.632Z,56.00
2023-03-21T16:46:42.930Z,56.00
2023-03-21T16:49:25.835Z,56.10
2023-03-21T16:51:57.403Z,56.00
2023-03-21T16:54:24.556Z,56.20
2023-03-21T16:56:54.994Z,56.20
2023-03-21T16:59:22.529Z,56.30
2023-03-21T17:01:50.173Z,56.40
2023-03-21T17:04:19.322Z,56.50
2023-03-21T17:06:53.085Z,56.60
2023-03-21T17:09:26.227Z,56.60
2023-03-21T17:11:54.450Z,56.70
2023-03-21T17:14:22.158Z,56.70
2023-03-21T17:16:49.618Z,56.60
2023-03-21T17:19:21.963Z,56.70
2023-03-21T17:21:49.139Z,56.80
2023-03-21T17:24:16.826Z,56.90
2023-03-21T17:26:44.225Z,56.90
2023-03-21T17:29:15.339Z,56.90
2023-03-21T17:31:43.987Z,57.10
2023-03-21T17:34:11.196Z,57.10
2023-03-21T17:36:41.240Z,57.20
2023-03-21T17:39:15.841Z,57.10
2023-03-21T17:41:42.982Z,57.20
2023-03-21T17:44:10.912Z,57.20
2023-03-21T17:46:38.115Z,57.10
2023-03-21T17:49:06.333Z,57.20
2023-03-21T17:51:34.056Z,57.30
2023-03-21T17:54:01.549Z,57.30
2023-03-21T17:56:31.786Z,57.40
2023-03-21T17:59:02.526Z,57.50
2023-03-21T18:01:30.965Z,57.50
2023-03-21T18:04:02.136Z,57.60
2023-03-21T18:06:29.667Z,57.60
2023-03-21T18:08:56.709Z,57.50
2023-03-21T18:11:25.322Z,57.60
2023-03-21T18:14:06.548Z,57.60
2023-03-21T18:16:37.358Z,57.60
2023-03-21T18:19:05.060Z,57.70
2023-03-21T18:21:33.040Z,57.80
2023-03-21T18:24:00.634Z,57.70
2023-03-21T18:26:27.779Z,57.90
2023-03-21T18:29:53.309Z,57.90
2023-03-21T18:31:47.003Z,57.90
2023-03-21T18:34:19.002Z,59.00
2023-03-21T18:36:49.135Z,57.90
2023-03-21T18:39:17.566Z,57.90
2023-03-21T18:41:44.908Z,57.90
2023-03-21T18:44:19.582Z,58.00
2023-03-21T18:46:50.239Z,58.00
2023-03-21T18:52:05.461Z,58.10
2023-03-21T18:54:33.142Z,58.00
2023-03-21T18:59:47.934Z,58.10
2023-03-21T19:02:15.975Z,58.10
2023-03-21T19:04:43.617Z,58.20
2023-03-21T19:07:11.078Z,58.30
2023-03-21T19:10:01.491Z,58.40
2023-03-21T19:12:27.950Z,58.30
2023-03-21T19:14:55.600Z,58.30
2023-03-21T19:18:21.830Z,58.30
2023-03-21T19:20:14.048Z,58.40
2023-03-21T19:22:42.096Z,58.40
2023-03-21T19:25:10.443Z,58.50
2023-03-21T19:27:39.155Z,58.50
2023-03-21T19:30:15.441Z,58.50
2023-03-21T19:32:44.373Z,58.40
2023-03-21T19:35:13.377Z,58.40
2023-03-21T19:37:41.337Z,58.50
2023-03-21T19:40:10.214Z,58.50
2023-03-21T19:42:37.381Z,58.50
2023-03-21T19:45:05.643Z,58.50
2023-03-21T19:47:32.971Z,58.60
2023-03-21T19:50:47.225Z,58.60
2023-03-21T19:52:48.166Z,58.60
2023-03-21T19:55:15.435Z,59.90
2023-03-21T19:57:42.491Z,58.70
2023-03-21T20:00:11.459Z,58.60
2023-03-21T20:02:39.617Z,58.60
2023-03-21T20:05:07.772Z,58.60
2023-03-21T20:07:35.211Z,58.70
2023-03-21T20:10:02.478Z,58.80
2023-03-21T20:12:30.614Z,58.70
2023-03-21T20:15:10.354Z,58.80
2023-03-21T20:17:44.061Z,58.80
2023-03-21T20:20:15.365Z,58.70
2023-03-21T20:23:05.581Z,58.80
2023-03-21T20:25:33.236Z,58.80
2023-03-21T20:28:15.248Z,58.90
2023-03-21T20:30:54.001Z,58.90
2023-03-21T20:33:21.739Z,58.90
2023-03-21T20:38:37.352Z,58.90
2023-03-21T20:41:07.358Z,59.00
2023-03-21T20:46:22.873Z,60.10
2023-03-21T20:48:50.767Z,59.00
2023-03-21T20:52:24.239Z,59.00
2023-03-21T20:54:06.027Z,59.20
2023-03-21T20:56:33.561Z,59.00
2023-03-21T20:59:15.719Z,59.10
2023-03-21T21:01:45.381Z,59.20
2023-03-21T21:04:15.119Z,59.10
2023-03-21T21:06:43.765Z,59.10
2023-03-21T21:09:10.862Z,59.20
2023-03-21T21:14:25.561Z,59.20
2023-03-21T21:16:52.747Z,59.30
2023-03-21T21:19:21.672Z,59.30
2023-03-21T21:21:49.822Z,59.20
2023-03-21T21:24:16.885Z,59.30
2023-03-21T21:26:46.461Z,59.40
2023-03-21T21:29:17.934Z,59.40
2023-03-21T21:31:48.744Z,59.50
2023-03-21T21:34:18.918Z,59.50
2023-03-21T21:36:46.864Z,59.40
2023-03-21T21:39:17.355Z,59.60
2023-03-21T21:41:44.446Z,59.40
2023-03-21T21:44:11.477Z,59.40
2023-03-21T21:46:39.014Z,59.50
2023-03-21T21:49:06.631Z,59.50
2023-03-21T21:51:34.609Z,59.50
2023-03-21T21:54:03.921Z,59.60
2023-03-21T21:56:34.231Z,59.60
2023-03-21T21:59:02.182Z,59.70
2023-03-21T22:01:31.065Z,59.70
2023-03-21T22:04:06.143Z,59.70
2023-03-21T22:06:37.088Z,59.70
2023-03-21T22:09:05.449Z,59.80
2023-03-21T22:11:33.016Z,59.80
2023-03-21T22:14:00.092Z,59.80
2023-03-21T22:16:27.380Z,59.70
2023-03-21T22:18:54.973Z,59.80
2023-03-21T22:21:22.219Z,59.70
2023-03-21T22:23:49.375Z,59.70
2023-03-21T22:26:17.168Z,59.80
2023-03-21T22:28:44.318Z,59.70
2023-03-21T22:31:15.566Z,59.70
2023-03-21T22:33:44.196Z,59.80
2023-03-21T22:36:12.005Z,59.80
2023-03-21T22:38:41.793Z,59.80
2023-03-21T22:41:09.114Z,59.90
2023-03-21T22:43:36.174Z,59.90
2023-03-21T22:46:05.401Z,59.90
2023-03-21T22:48:33.213Z,59.80
2023-03-21T22:51:00.991Z,59.90
2023-03-21T22:53:28.876Z,59.90
2023-03-21T22:55:56.316Z,59.90
2023-03-21T22:58:24.015Z,59.90
2023-03-21T23:00:51.230Z,60.00
2023-03-21T23:03:18.943Z,60.00
2023-03-21T23:05:46.403Z,60.00
2023-03-21T23:08:14.232Z,60.00
2023-03-21T23:10:43.747Z,60.00
2023-03-21T23:13:12.106Z,60.00
2023-03-21T23:15:40.035Z,60.10
2023-03-21T23:18:07.471Z,60.10
2023-03-21T23:20:34.796Z,60.10
2023-03-21T23:23:02.442Z,60.10
2023-03-21T23:25:30.294Z,60.20
2023-03-21T23:27:57.333Z,60.10
2023-03-21T23:30:24.538Z,60.20
2023-03-21T23:32:52.157Z,60.20
2023-03-21T23:35:19.413Z,60.10
2023-03-21T23:37:51.934Z,60.20
2023-03-21T23:40:21.098Z,60.10
2023-03-21T23:42:48.243Z,60.10
2023-03-21T23:45:15.602Z,60.20
2023-03-21T23:47:43.039Z,60.10
2023-03-21T23:50:11.093Z,60.10
2023-03-21T23:52:41.394Z,60.20
2023-03-21T23:55:09.395Z,60.20
2023-03-21T23:57:38.157Z,60.20
